sensor_id;sensor_type;location;lat;lon;timestamp;pressure;altitude;pressure_sealevel;temperature;humidity
6345;BME280;3205;42.666;23.264;2023-05-09T00:01:18;94642.31;;;13.17;nan
6345;BME280;3205;42.666;23.264;2023-05-09T00:03:45;94648.72;;;13.16;nan
6345;BME280;3205;42.666;23.264;2023-05-09T00:06:11;94643.34;;;13.12;nan
6345;BME280;3205;42.666;23.264;2023-05-09T00:08:38;94635.03;;;13.14;nan
6345;BME280;3205;42.666;23.264;2023-05-09T00:11:04;94629.47;;;13.19;nan
6345;BME280;3205;42.666;23.264;2023-05-09T00:13:31;94636.66;;;13.18;nan
6345;BME280;3205;42.666;23.264;2023-05-09T00:15:57;94631.00;;;13.20;nan
6345;BME280;3205;42.666;23.264;2023-05-09T00:18:23;94632.03;;;13.15;nan
6345;BME280;3205;42.666;23.264;2023-05-09T00:20:49;94635.63;;;13.23;nan
6345;BME280;3205;42.666;23.264;2023-05-09T00:23:15;94631.59;;;13.29;nan
6345;BME280;3205;42.666;23.264;2023-05-09T00:25:42;94627.50;;;13.31;nan
6345;BME280;3205;42.666;23.264;2023-05-09T00:28:08;94631.88;;;13.24;nan
6345;BME280;3205;42.666;23.264;2023-05-09T00:30:35;94637.25;;;13.27;nan
6345;BME280;3205;42.666;23.264;2023-05-09T00:33:01;94632.22;;;13.22;nan
6345;BME280;3205;42.666;23.264;2023-05-09T00:35:27;94630.69;;;13.21;nan
6345;BME280;3205;42.666;23.264;2023-05-09T00:37:53;94626.56;;;13.24;nan
6345;BME280;3205;42.666;23.264;2023-05-09T00:40:19;94632.72;;;13.28;nan
6345;BME280;3205;42.666;23.264;2023-05-09T00:42:45;94628.94;;;13.29;nan
6345;BME280;3205;42.666;23.264;2023-05-09T00:45:11;94619.78;;;13.26;nan
6345;BME280;3205;42.666;23.264;2023-05-09T00:47:38;94627.00;;;13.26;nan
6345;BME280;3205;42.666;23.264;2023-05-09T00:50:05;94623.03;;;13.20;nan
6345;BME280;3205;42.666;23.264;2023-05-09T00:52:32;94636.13;;;13.13;nan
6345;BME280;3205;42.666;23.264;2023-05-09T00:54:59;94629.97;;;13.09;nan
6345;BME280;3205;42.666;23.264;2023-05-09T00:57:25;94627.50;;;13.00;nan
6345;BME280;3205;42.666;23.264;2023-05-09T00:59:51;94629.88;;;13.05;nan
6345;BME280;3205;42.666;23.264;2023-05-09T01:02:17;94638.78;;;13.13;nan
6345;BME280;3205;42.666;23.264;2023-05-09T01:04:45;94628.16;;;13.13;nan
6345;BME280;3205;42.666;23.264;2023-05-09T01:07:18;94632.63;;;13.09;nan
6345;BME280;3205;42.666;23.264;2023-05-09T01:09:54;94614.41;;;13.07;nan
6345;BME280;3205;42.666;23.264;2023-05-09T01:12:26;94613.69;;;13.10;nan
6345;BME280;3205;42.666;23.264;2023-05-09T01:14:59;94620.72;;;13.03;nan
6345;BME280;3205;42.666;23.264;2023-05-09T01:17:35;94619.19;;;13.02;nan
6345;BME280;3205;42.666;23.264;2023-05-09T01:20:11;94612.59;;;12.96;nan
6345;BME280;3205;42.666;23.264;2023-05-09T01:22:44;94618.47;;;12.89;nan
6345;BME280;3205;42.666;23.264;2023-05-09T01:25:44;94614.31;;;12.88;nan
6345;BME280;3205;42.666;23.264;2023-05-09T01:28:22;94614.84;;;12.82;nan
6345;BME280;3205;42.666;23.264;2023-05-09T01:30:56;94619.31;;;12.78;nan
6345;BME280;3205;42.666;23.264;2023-05-09T01:33:23;94616.66;;;12.78;nan
6345;BME280;3205;42.666;23.264;2023-05-09T01:35:56;94615.34;;;12.72;nan
6345;BME280;3205;42.666;23.264;2023-05-09T01:38:24;94613.38;;;12.69;nan
6345;BME280;3205;42.666;23.264;2023-05-09T01:40:52;94611.56;;;12.73;nan
6345;BME280;3205;42.666;23.264;2023-05-09T01:43:20;94614.13;;;12.69;nan
6345;BME280;3205;42.666;23.264;2023-05-09T01:45:49;94619.78;;;12.68;nan
6345;BME280;3205;42.666;23.264;2023-05-09T01:48:17;94617.31;;;12.75;nan
6345;BME280;3205;42.666;23.264;2023-05-09T01:50:46;94622.81;;;12.82;nan
6345;BME280;3205;42.666;23.264;2023-05-09T01:53:13;94621.22;;;12.93;nan
6345;BME280;3205;42.666;23.264;2023-05-09T01:55:40;94630.75;;;12.82;nan
6345;BME280;3205;42.666;23.264;2023-05-09T01:58:08;94632.66;;;12.81;nan
6345;BME280;3205;42.666;23.264;2023-05-09T02:00:36;94626.56;;;12.81;nan
6345;BME280;3205;42.666;23.264;2023-05-09T02:03:03;94624.34;;;12.83;nan
6345;BME280;3205;42.666;23.264;2023-05-09T02:05:30;94626.91;;;12.79;nan
6345;BME280;3205;42.666;23.264;2023-05-09T02:07:58;94626.47;;;12.77;nan
6345;BME280;3205;42.666;23.264;2023-05-09T02:10:25;94630.00;;;12.81;nan
6345;BME280;3205;42.666;23.264;2023-05-09T02:12:52;94628.47;;;12.80;nan
6345;BME280;3205;42.666;23.264;2023-05-09T02:15:18;94627.06;;;12.71;nan
6345;BME280;3205;42.666;23.264;2023-05-09T02:17:44;94616.13;;;12.72;nan
6345;BME280;3205;42.666;23.264;2023-05-09T02:20:11;94617.31;;;12.75;nan
6345;BME280;3205;42.666;23.264;2023-05-09T02:22:39;94625.84;;;12.68;nan
6345;BME280;3205;42.666;23.264;2023-05-09T02:25:07;94621.78;;;12.71;nan
6345;BME280;3205;42.666;23.264;2023-05-09T02:27:37;94623.72;;;12.74;nan
6345;BME280;3205;42.666;23.264;2023-05-09T02:30:07;94630.84;;;12.70;nan
6345;BME280;3205;42.666;23.264;2023-05-09T02:32:36;94629.03;;;12.74;nan
6345;BME280;3205;42.666;23.264;2023-05-09T02:35:05;94627.75;;;12.68;nan
6345;BME280;3205;42.666;23.264;2023-05-09T02:37:34;94623.44;;;12.63;nan
6345;BME280;3205;42.666;23.264;2023-05-09T02:40:02;94623.09;;;12.65;nan
6345;BME280;3205;42.666;23.264;2023-05-09T02:42:29;94613.63;;;12.64;nan
6345;BME280;3205;42.666;23.264;2023-05-09T02:44:55;94616.69;;;12.66;nan
6345;BME280;3205;42.666;23.264;2023-05-09T02:47:22;94612.19;;;12.66;nan
6345;BME280;3205;42.666;23.264;2023-05-09T02:49:48;94609.19;;;12.68;nan
6345;BME280;3205;42.666;23.264;2023-05-09T02:52:14;94614.03;;;12.66;nan
6345;BME280;3205;42.666;23.264;2023-05-09T02:54:40;94615.84;;;12.62;nan
6345;BME280;3205;42.666;23.264;2023-05-09T02:57:07;94614.94;;;12.58;nan
6345;BME280;3205;42.666;23.264;2023-05-09T02:59:33;94612.31;;;12.58;nan
6345;BME280;3205;42.666;23.264;2023-05-09T03:01:59;94618.97;;;12.52;nan
6345;BME280;3205;42.666;23.264;2023-05-09T03:04:25;94623.16;;;12.53;nan
6345;BME280;3205;42.666;23.264;2023-05-09T03:06:51;94615.22;;;12.53;nan
6345;BME280;3205;42.666;23.264;2023-05-09T03:09:17;94619.75;;;12.53;nan
6345;BME280;3205;42.666;23.264;2023-05-09T03:11:43;94622.75;;;12.51;nan
6345;BME280;3205;42.666;23.264;2023-05-09T03:14:10;94622.50;;;12.56;nan
6345;BME280;3205;42.666;23.264;2023-05-09T03:16:39;94620.09;;;12.51;nan
6345;BME280;3205;42.666;23.264;2023-05-09T03:19:05;94629.56;;;12.52;nan
6345;BME280;3205;42.666;23.264;2023-05-09T03:21:31;94637.09;;;12.50;nan
6345;BME280;3205;42.666;23.264;2023-05-09T03:23:58;94638.22;;;12.49;nan
6345;BME280;3205;42.666;23.264;2023-05-09T03:26:24;94645.72;;;12.47;nan
6345;BME280;3205;42.666;23.264;2023-05-09T03:28:51;94647.72;;;12.50;nan
6345;BME280;3205;42.666;23.264;2023-05-09T03:31:17;94649.00;;;12.56;nan
6345;BME280;3205;42.666;23.264;2023-05-09T03:33:43;94650.56;;;12.57;nan
6345;BME280;3205;42.666;23.264;2023-05-09T03:36:11;94644.13;;;12.58;nan
6345;BME280;3205;42.666;23.264;2023-05-09T03:38:37;94659.19;;;12.54;nan
6345;BME280;3205;42.666;23.264;2023-05-09T03:41:04;94652.53;;;12.60;nan
6345;BME280;3205;42.666;23.264;2023-05-09T03:43:30;94651.41;;;12.61;nan
6345;BME280;3205;42.666;23.264;2023-05-09T03:45:56;94658.41;;;12.54;nan
6345;BME280;3205;42.666;23.264;2023-05-09T03:48:23;94651.41;;;12.61;nan
6345;BME280;3205;42.666;23.264;2023-05-09T03:50:49;94657.06;;;12.59;nan
6345;BME280;3205;42.666;23.264;2023-05-09T03:53:15;94652.06;;;12.70;nan
6345;BME280;3205;42.666;23.264;2023-05-09T03:55:41;94665.06;;;12.75;nan
6345;BME280;3205;42.666;23.264;2023-05-09T03:58:07;94670.28;;;12.71;nan
6345;BME280;3205;42.666;23.264;2023-05-09T04:00:33;94666.81;;;12.83;nan
6345;BME280;3205;42.666;23.264;2023-05-09T04:03:00;94674.03;;;12.70;nan
6345;BME280;3205;42.666;23.264;2023-05-09T04:05:26;94668.53;;;12.63;nan
6345;BME280;3205;42.666;23.264;2023-05-09T04:07:53;94678.69;;;12.61;nan
6345;BME280;3205;42.666;23.264;2023-05-09T04:10:19;94680.84;;;12.56;nan
6345;BME280;3205;42.666;23.264;2023-05-09T04:12:45;94674.28;;;12.65;nan
6345;BME280;3205;42.666;23.264;2023-05-09T04:15:11;94668.38;;;12.72;nan
6345;BME280;3205;42.666;23.264;2023-05-09T04:17:37;94671.13;;;12.75;nan
6345;BME280;3205;42.666;23.264;2023-05-09T04:20:04;94672.34;;;12.78;nan
6345;BME280;3205;42.666;23.264;2023-05-09T04:22:33;94677.38;;;12.95;nan
6345;BME280;3205;42.666;23.264;2023-05-09T04:24:59;94675.56;;;12.99;nan
6345;BME280;3205;42.666;23.264;2023-05-09T04:27:25;94669.59;;;13.02;nan
6345;BME280;3205;42.666;23.264;2023-05-09T04:29:52;94662.75;;;13.01;nan
6345;BME280;3205;42.666;23.264;2023-05-09T04:32:18;94670.34;;;13.02;nan
6345;BME280;3205;42.666;23.264;2023-05-09T04:34:45;94673.78;;;12.87;nan
6345;BME280;3205;42.666;23.264;2023-05-09T04:37:11;94668.06;;;13.01;nan
6345;BME280;3205;42.666;23.264;2023-05-09T04:39:38;94678.66;;;13.01;nan
6345;BME280;3205;42.666;23.264;2023-05-09T04:42:04;94679.66;;;13.24;nan
6345;BME280;3205;42.666;23.264;2023-05-09T04:44:30;94685.91;;;13.31;nan
6345;BME280;3205;42.666;23.264;2023-05-09T04:46:57;94683.06;;;13.39;nan
6345;BME280;3205;42.666;23.264;2023-05-09T04:49:23;94667.00;;;13.48;nan
6345;BME280;3205;42.666;23.264;2023-05-09T04:51:50;94678.88;;;13.69;nan
6345;BME280;3205;42.666;23.264;2023-05-09T04:54:16;94686.69;;;13.62;nan
6345;BME280;3205;42.666;23.264;2023-05-09T04:56:43;94689.97;;;13.56;nan
6345;BME280;3205;42.666;23.264;2023-05-09T04:59:09;94683.69;;;13.64;nan
6345;BME280;3205;42.666;23.264;2023-05-09T05:01:35;94685.19;;;14.11;nan
6345;BME280;3205;42.666;23.264;2023-05-09T05:04:01;94691.34;;;14.15;nan
6345;BME280;3205;42.666;23.264;2023-05-09T05:06:27;94690.91;;;14.28;nan
6345;BME280;3205;42.666;23.264;2023-05-09T05:08:53;94701.63;;;14.32;nan
6345;BME280;3205;42.666;23.264;2023-05-09T05:11:19;94695.34;;;14.24;nan
6345;BME280;3205;42.666;23.264;2023-05-09T05:13:46;94689.22;;;14.05;nan
6345;BME280;3205;42.666;23.264;2023-05-09T05:16:13;94696.59;;;13.96;nan
6345;BME280;3205;42.666;23.264;2023-05-09T05:18:39;94684.84;;;13.97;nan
6345;BME280;3205;42.666;23.264;2023-05-09T05:21:05;94683.53;;;14.07;nan
6345;BME280;3205;42.666;23.264;2023-05-09T05:23:31;94684.94;;;14.35;nan
6345;BME280;3205;42.666;23.264;2023-05-09T05:25:59;94702.06;;;14.18;nan
6345;BME280;3205;42.666;23.264;2023-05-09T05:28:25;94696.34;;;14.16;nan
6345;BME280;3205;42.666;23.264;2023-05-09T05:30:52;94687.75;;;14.23;nan
6345;BME280;3205;42.666;23.264;2023-05-09T05:33:19;94697.50;;;14.72;nan
6345;BME280;3205;42.666;23.264;2023-05-09T05:35:45;94705.31;;;15.41;nan
6345;BME280;3205;42.666;23.264;2023-05-09T05:38:11;94726.06;;;15.73;nan
6345;BME280;3205;42.666;23.264;2023-05-09T05:40:37;94728.28;;;16.16;nan
6345;BME280;3205;42.666;23.264;2023-05-09T05:43:03;94730.25;;;16.44;nan
6345;BME280;3205;42.666;23.264;2023-05-09T05:45:30;94731.94;;;15.82;nan
6345;BME280;3205;42.666;23.264;2023-05-09T05:47:56;94734.13;;;15.54;nan
6345;BME280;3205;42.666;23.264;2023-05-09T05:50:22;94735.13;;;15.91;nan
6345;BME280;3205;42.666;23.264;2023-05-09T05:52:49;94740.47;;;16.94;nan
6345;BME280;3205;42.666;23.264;2023-05-09T05:55:15;94750.88;;;19.26;nan
6345;BME280;3205;42.666;23.264;2023-05-09T05:57:41;94753.25;;;21.22;nan
6345;BME280;3205;42.666;23.264;2023-05-09T06:00:08;94755.06;;;21.46;nan
6345;BME280;3205;42.666;23.264;2023-05-09T06:02:35;94744.03;;;19.49;nan
6345;BME280;3205;42.666;23.264;2023-05-09T06:05:02;94748.97;;;18.12;nan
6345;BME280;3205;42.666;23.264;2023-05-09T06:07:28;94754.22;;;16.96;nan
6345;BME280;3205;42.666;23.264;2023-05-09T06:09:54;94743.81;;;16.33;nan
6345;BME280;3205;42.666;23.264;2023-05-09T06:12:20;94739.00;;;16.41;nan
6345;BME280;3205;42.666;23.264;2023-05-09T06:14:47;94750.69;;;15.44;nan
6345;BME280;3205;42.666;23.264;2023-05-09T06:17:13;94744.66;;;14.90;nan
6345;BME280;3205;42.666;23.264;2023-05-09T06:19:39;94732.50;;;15.27;nan
6345;BME280;3205;42.666;23.264;2023-05-09T06:22:05;94736.72;;;15.51;nan
6345;BME280;3205;42.666;23.264;2023-05-09T06:24:31;94735.59;;;15.52;nan
6345;BME280;3205;42.666;23.264;2023-05-09T06:26:58;94741.72;;;15.33;nan
6345;BME280;3205;42.666;23.264;2023-05-09T06:29:24;94730.59;;;14.71;nan
6345;BME280;3205;42.666;23.264;2023-05-09T06:31:50;94726.38;;;14.70;nan
6345;BME280;3205;42.666;23.264;2023-05-09T06:34:16;94726.84;;;14.76;nan
6345;BME280;3205;42.666;23.264;2023-05-09T06:36:42;94726.91;;;14.60;nan
6345;BME280;3205;42.666;23.264;2023-05-09T06:39:09;94719.88;;;14.68;nan
6345;BME280;3205;42.666;23.264;2023-05-09T06:41:35;94727.28;;;14.78;nan
6345;BME280;3205;42.666;23.264;2023-05-09T06:44:01;94729.81;;;14.89;nan
6345;BME280;3205;42.666;23.264;2023-05-09T06:46:27;94731.06;;;14.77;nan
6345;BME280;3205;42.666;23.264;2023-05-09T06:48:53;94728.84;;;14.97;nan
6345;BME280;3205;42.666;23.264;2023-05-09T06:51:19;94737.25;;;14.99;nan
6345;BME280;3205;42.666;23.264;2023-05-09T06:53:45;94741.31;;;14.40;nan
6345;BME280;3205;42.666;23.264;2023-05-09T06:56:12;94732.25;;;14.60;nan
6345;BME280;3205;42.666;23.264;2023-05-09T06:58:38;94734.28;;;14.67;nan
6345;BME280;3205;42.666;23.264;2023-05-09T07:01:04;94739.47;;;14.79;nan
6345;BME280;3205;42.666;23.264;2023-05-09T07:03:31;94742.34;;;14.70;nan
6345;BME280;3205;42.666;23.264;2023-05-09T07:05:57;94744.47;;;14.46;nan
6345;BME280;3205;42.666;23.264;2023-05-09T07:08:24;94731.50;;;14.60;nan
6345;BME280;3205;42.666;23.264;2023-05-09T07:10:51;94727.28;;;14.78;nan
6345;BME280;3205;42.666;23.264;2023-05-09T07:13:17;94729.78;;;14.52;nan
6345;BME280;3205;42.666;23.264;2023-05-09T07:15:43;94724.34;;;14.64;nan
6345;BME280;3205;42.666;23.264;2023-05-09T07:18:09;94735.06;;;14.67;nan
6345;BME280;3205;42.666;23.264;2023-05-09T07:20:35;94737.25;;;14.81;nan
6345;BME280;3205;42.666;23.264;2023-05-09T07:23:02;94741.16;;;15.05;nan
6345;BME280;3205;42.666;23.264;2023-05-09T07:25:28;94743.53;;;14.91;nan
6345;BME280;3205;42.666;23.264;2023-05-09T07:27:54;94741.22;;;15.09;nan
6345;BME280;3205;42.666;23.264;2023-05-09T07:30:21;94741.78;;;14.61;nan
6345;BME280;3205;42.666;23.264;2023-05-09T07:32:47;94740.56;;;14.40;nan
6345;BME280;3205;42.666;23.264;2023-05-09T07:35:13;94735.47;;;14.35;nan
6345;BME280;3205;42.666;23.264;2023-05-09T07:37:39;94729.75;;;14.33;nan
6345;BME280;3205;42.666;23.264;2023-05-09T07:40:07;94728.91;;;14.63;nan
6345;BME280;3205;42.666;23.264;2023-05-09T07:42:33;94738.81;;;14.47;nan
6345;BME280;3205;42.666;23.264;2023-05-09T07:44:59;94730.59;;;14.71;nan
6345;BME280;3205;42.666;23.264;2023-05-09T07:47:27;94725.19;;;14.68;nan
6345;BME280;3205;42.666;23.264;2023-05-09T07:49:53;94737.19;;;14.77;nan
6345;BME280;3205;42.666;23.264;2023-05-09T07:52:19;94742.81;;;14.76;nan
6345;BME280;3205;42.666;23.264;2023-05-09T07:54:45;94736.94;;;14.67;nan
6345;BME280;3205;42.666;23.264;2023-05-09T07:57:12;94741.63;;;14.73;nan
6345;BME280;3205;42.666;23.264;2023-05-09T07:59:38;94737.78;;;14.71;nan
6345;BME280;3205;42.666;23.264;2023-05-09T08:02:04;94728.97;;;14.85;nan
6345;BME280;3205;42.666;23.264;2023-05-09T08:04:31;94720.50;;;15.18;nan
6345;BME280;3205;42.666;23.264;2023-05-09T08:06:57;94720.63;;;15.44;nan
6345;BME280;3205;42.666;23.264;2023-05-09T08:09:23;94726.38;;;15.68;nan
6345;BME280;3205;42.666;23.264;2023-05-09T08:11:51;94726.75;;;15.70;nan
6345;BME280;3205;42.666;23.264;2023-05-09T08:14:17;94732.84;;;16.38;nan
6345;BME280;3205;42.666;23.264;2023-05-09T08:16:43;94731.81;;;16.23;nan
6345;BME280;3205;42.666;23.264;2023-05-09T08:19:09;94729.41;;;16.15;nan
6345;BME280;3205;42.666;23.264;2023-05-09T08:21:35;94738.22;;;16.41;nan
6345;BME280;3205;42.666;23.264;2023-05-09T08:24:02;94731.69;;;16.38;nan
6345;BME280;3205;42.666;23.264;2023-05-09T08:26:28;94726.72;;;16.37;nan
6345;BME280;3205;42.666;23.264;2023-05-09T08:28:54;94739.19;;;16.30;nan
6345;BME280;3205;42.666;23.264;2023-05-09T08:31:20;94742.75;;;16.15;nan
6345;BME280;3205;42.666;23.264;2023-05-09T08:33:46;94736.03;;;15.98;nan
6345;BME280;3205;42.666;23.264;2023-05-09T08:36:12;94726.84;;;16.22;nan
6345;BME280;3205;42.666;23.264;2023-05-09T08:38:39;94740.53;;;16.42;nan
6345;BME280;3205;42.666;23.264;2023-05-09T08:41:05;94737.44;;;16.40;nan
6345;BME280;3205;42.666;23.264;2023-05-09T08:43:32;94738.69;;;15.98;nan
6345;BME280;3205;42.666;23.264;2023-05-09T08:46:02;94728.72;;;15.95;nan
6345;BME280;3205;42.666;23.264;2023-05-09T08:48:30;94735.53;;;15.48;nan
6345;BME280;3205;42.666;23.264;2023-05-09T08:50:56;94727.19;;;15.50;nan
6345;BME280;3205;42.666;23.264;2023-05-09T08:53:23;94723.22;;;15.21;nan
6345;BME280;3205;42.666;23.264;2023-05-09T08:55:51;94717.63;;;14.88;nan
6345;BME280;3205;42.666;23.264;2023-05-09T08:58:18;94721.72;;;14.48;nan
6345;BME280;3205;42.666;23.264;2023-05-09T09:00:45;94726.53;;;14.77;nan
6345;BME280;3205;42.666;23.264;2023-05-09T09:03:12;94722.16;;;14.50;nan
6345;BME280;3205;42.666;23.264;2023-05-09T09:05:41;94728.44;;;14.42;nan
6345;BME280;3205;42.666;23.264;2023-05-09T09:08:08;94716.91;;;14.54;nan
6345;BME280;3205;42.666;23.264;2023-05-09T09:10:34;94722.31;;;14.57;nan
6345;BME280;3205;42.666;23.264;2023-05-09T09:13:04;94719.72;;;14.61;nan
6345;BME280;3205;42.666;23.264;2023-05-09T09:15:34;94720.72;;;14.72;nan
6345;BME280;3205;42.666;23.264;2023-05-09T09:18:05;94723.16;;;14.61;nan
6345;BME280;3205;42.666;23.264;2023-05-09T09:20:32;94727.50;;;14.69;nan
6345;BME280;3205;42.666;23.264;2023-05-09T09:22:59;94717.53;;;14.66;nan
6345;BME280;3205;42.666;23.264;2023-05-09T09:25:28;94724.34;;;14.64;nan
6345;BME280;3205;42.666;23.264;2023-05-09T09:27:54;94716.50;;;14.52;nan
6345;BME280;3205;42.666;23.264;2023-05-09T09:30:23;94723.97;;;14.65;nan
6345;BME280;3205;42.666;23.264;2023-05-09T09:32:49;94721.44;;;14.34;nan
6345;BME280;3205;42.666;23.264;2023-05-09T09:35:15;94727.44;;;14.31;nan
6345;BME280;3205;42.666;23.264;2023-05-09T09:37:42;94729.25;;;14.27;nan
6345;BME280;3205;42.666;23.264;2023-05-09T09:40:09;94734.75;;;14.53;nan
6345;BME280;3205;42.666;23.264;2023-05-09T09:42:41;94731.31;;;14.18;nan
6345;BME280;3205;42.666;23.264;2023-05-09T09:45:09;94736.06;;;14.44;nan
6345;BME280;3205;42.666;23.264;2023-05-09T09:47:36;94729.72;;;14.67;nan
6345;BME280;3205;42.666;23.264;2023-05-09T09:50:09;94736.81;;;14.79;nan
6345;BME280;3205;42.666;23.264;2023-05-09T09:52:35;94734.28;;;14.67;nan
6345;BME280;3205;42.666;23.264;2023-05-09T09:55:03;94736.53;;;14.83;nan
6345;BME280;3205;42.666;23.264;2023-05-09T09:57:33;94738.06;;;14.84;nan
6345;BME280;3205;42.666;23.264;2023-05-09T09:59:59;94733.88;;;15.40;nan
6345;BME280;3205;42.666;23.264;2023-05-09T10:02:26;94734.47;;;15.97;nan
6345;BME280;3205;42.666;23.264;2023-05-09T10:04:52;94741.78;;;16.26;nan
6345;BME280;3205;42.666;23.264;2023-05-09T10:07:21;94736.09;;;15.79;nan
6345;BME280;3205;42.666;23.264;2023-05-09T10:09:48;94738.69;;;15.16;nan
6345;BME280;3205;42.666;23.264;2023-05-09T10:12:14;94725.28;;;14.71;nan
6345;BME280;3205;42.666;23.264;2023-05-09T10:14:44;94717.25;;;15.28;nan
6345;BME280;3205;42.666;23.264;2023-05-09T10:17:13;94714.13;;;16.12;nan
6345;BME280;3205;42.666;23.264;2023-05-09T10:19:43;94729.19;;;16.49;nan
6345;BME280;3205;42.666;23.264;2023-05-09T10:22:13;94725.75;;;15.56;nan
6345;BME280;3205;42.666;23.264;2023-05-09T10:24:45;94722.88;;;15.86;nan
6345;BME280;3205;42.666;23.264;2023-05-09T10:27:12;94727.97;;;16.21;nan
6345;BME280;3205;42.666;23.264;2023-05-09T10:29:44;94727.16;;;16.17;nan
6345;BME280;3205;42.666;23.264;2023-05-09T10:32:15;94728.50;;;16.04;nan
6345;BME280;3205;42.666;23.264;2023-05-09T10:34:44;94718.13;;;16.25;nan
6345;BME280;3205;42.666;23.264;2023-05-09T10:37:13;94717.81;;;16.04;nan
6345;BME280;3205;42.666;23.264;2023-05-09T10:39:40;94708.13;;;15.70;nan
6345;BME280;3205;42.666;23.264;2023-05-09T10:42:07;94717.94;;;15.66;nan
6345;BME280;3205;42.666;23.264;2023-05-09T10:44:34;94707.22;;;15.62;nan
6345;BME280;3205;42.666;23.264;2023-05-09T10:47:03;94706.66;;;15.72;nan
6345;BME280;3205;42.666;23.264;2023-05-09T10:49:29;94714.22;;;16.19;nan
6345;BME280;3205;42.666;23.264;2023-05-09T10:51:56;94711.22;;;16.20;nan
6345;BME280;3205;42.666;23.264;2023-05-09T10:54:27;94705.16;;;15.75;nan
6345;BME280;3205;42.666;23.264;2023-05-09T10:56:53;94705.53;;;16.47;nan
6345;BME280;3205;42.666;23.264;2023-05-09T10:59:34;94712.28;;;15.90;nan
6345;BME280;3205;42.666;23.264;2023-05-09T11:02:02;94711.19;;;15.27;nan
6345;BME280;3205;42.666;23.264;2023-05-09T11:04:30;94704.44;;;15.14;nan
6345;BME280;3205;42.666;23.264;2023-05-09T11:06:56;94712.16;;;15.00;nan
6345;BME280;3205;42.666;23.264;2023-05-09T11:09:24;94708.38;;;15.01;nan
6345;BME280;3205;42.666;23.264;2023-05-09T11:11:54;94698.94;;;15.45;nan
6345;BME280;3205;42.666;23.264;2023-05-09T11:14:37;94719.00;;;15.39;nan
6345;BME280;3205;42.666;23.264;2023-05-09T11:17:04;94688.97;;;15.01;nan
6345;BME280;3205;42.666;23.264;2023-05-09T11:19:36;94701.66;;;15.07;nan
6345;BME280;3205;42.666;23.264;2023-05-09T11:22:11;94695.63;;;15.74;nan
6345;BME280;3205;42.666;23.264;2023-05-09T11:24:37;94710.69;;;16.11;nan
6345;BME280;3205;42.666;23.264;2023-05-09T11:27:13;94720.44;;;15.33;nan
6345;BME280;3205;42.666;23.264;2023-05-09T11:29:43;94702.47;;;15.30;nan
6345;BME280;3205;42.666;23.264;2023-05-09T11:32:13;94704.63;;;15.66;nan
6345;BME280;3205;42.666;23.264;2023-05-09T11:34:42;94701.03;;;16.03;nan
6345;BME280;3205;42.666;23.264;2023-05-09T11:37:09;94695.50;;;16.67;nan
6345;BME280;3205;42.666;23.264;2023-05-09T11:39:54;94707.38;;;17.02;nan
6345;BME280;3205;42.666;23.264;2023-05-09T11:42:22;94707.91;;;16.85;nan
6345;BME280;3205;42.666;23.264;2023-05-09T11:44:48;94719.72;;;16.55;nan
6345;BME280;3205;42.666;23.264;2023-05-09T11:47:15;94705.75;;;16.65;nan
6345;BME280;3205;42.666;23.264;2023-05-09T11:49:42;94718.97;;;16.54;nan
6345;BME280;3205;42.666;23.264;2023-05-09T11:52:08;94701.97;;;16.14;nan
6345;BME280;3205;42.666;23.264;2023-05-09T11:54:35;94695.34;;;16.05;nan
6345;BME280;3205;42.666;23.264;2023-05-09T11:57:02;94706.22;;;16.41;nan
6345;BME280;3205;42.666;23.264;2023-05-09T11:59:29;94700.59;;;16.49;nan
6345;BME280;3205;42.666;23.264;2023-05-09T12:01:56;94703.03;;;16.61;nan
6345;BME280;3205;42.666;23.264;2023-05-09T12:04:27;94703.09;;;16.36;nan
6345;BME280;3205;42.666;23.264;2023-05-09T12:06:56;94712.06;;;16.02;nan
6345;BME280;3205;42.666;23.264;2023-05-09T12:09:23;94697.63;;;16.03;nan
6345;BME280;3205;42.666;23.264;2023-05-09T12:11:50;94718.53;;;16.01;nan
6345;BME280;3205;42.666;23.264;2023-05-09T12:14:26;94703.50;;;15.67;nan
6345;BME280;3205;42.666;23.264;2023-05-09T12:16:52;94717.47;;;15.38;nan
6345;BME280;3205;42.666;23.264;2023-05-09T12:19:19;94717.19;;;15.24;nan
6345;BME280;3205;42.666;23.264;2023-05-09T12:21:45;94707.75;;;14.89;nan
6345;BME280;3205;42.666;23.264;2023-05-09T12:24:11;94702.75;;;14.69;nan
6345;BME280;3205;42.666;23.264;2023-05-09T12:26:38;94704.03;;;14.56;nan
6345;BME280;3205;42.666;23.264;2023-05-09T12:29:04;94702.50;;;14.74;nan
6345;BME280;3205;42.666;23.264;2023-05-09T12:31:31;94700.81;;;14.66;nan
6345;BME280;3205;42.666;23.264;2023-05-09T12:33:57;94699.56;;;14.60;nan
6345;BME280;3205;42.666;23.264;2023-05-09T12:36:24;94698.16;;;14.66;nan
6345;BME280;3205;42.666;23.264;2023-05-09T12:38:54;94699.63;;;14.63;nan
6345;BME280;3205;42.666;23.264;2023-05-09T12:41:20;94695.63;;;14.54;nan
6345;BME280;3205;42.666;23.264;2023-05-09T12:43:47;94693.38;;;14.56;nan
6345;BME280;3205;42.666;23.264;2023-05-09T12:46:16;94689.03;;;14.48;nan
6345;BME280;3205;42.666;23.264;2023-05-09T12:48:43;94693.44;;;14.40;nan
6345;BME280;3205;42.666;23.264;2023-05-09T12:51:10;94688.97;;;14.44;nan
6345;BME280;3205;42.666;23.264;2023-05-09T12:53:37;94685.81;;;14.58;nan
6345;BME280;3205;42.666;23.264;2023-05-09T12:56:10;94684.31;;;14.22;nan
6345;BME280;3205;42.666;23.264;2023-05-09T12:58:37;94689.41;;;13.97;nan
6345;BME280;3205;42.666;23.264;2023-05-09T13:01:04;94673.97;;;13.87;nan
6345;BME280;3205;42.666;23.264;2023-05-09T13:03:30;94697.81;;;13.83;nan
6345;BME280;3205;42.666;23.264;2023-05-09T13:06:10;94676.59;;;14.02;nan
6345;BME280;3205;42.666;23.264;2023-05-09T13:08:37;94673.94;;;14.17;nan
6345;BME280;3205;42.666;23.264;2023-05-09T13:11:04;94667.59;;;13.72;nan
6345;BME280;3205;42.666;23.264;2023-05-09T13:13:30;94689.53;;;13.38;nan
6345;BME280;3205;42.666;23.264;2023-05-09T13:15:56;94666.03;;;13.40;nan
6345;BME280;3205;42.666;23.264;2023-05-09T13:18:22;94643.75;;;13.45;nan
6345;BME280;3205;42.666;23.264;2023-05-09T13:20:49;94641.97;;;13.99;nan
6345;BME280;3205;42.666;23.264;2023-05-09T13:23:15;94665.47;;;14.12;nan
6345;BME280;3205;42.666;23.264;2023-05-09T13:25:42;94655.78;;;14.04;nan
6345;BME280;3205;42.666;23.264;2023-05-09T13:28:08;94643.09;;;14.13;nan
6345;BME280;3205;42.666;23.264;2023-05-09T13:30:34;94652.47;;;13.76;nan
6345;BME280;3205;42.666;23.264;2023-05-09T13:33:00;94673.94;;;13.52;nan